createdAt,value
2019-03-21T00:02:07.945Z,67.11
2019-03-21T00:04:37.392Z,67.61
2019-03-21T00:07:06.817Z,67.70
2019-03-21T00:09:37.524Z,67.74
2019-03-21T00:12:11.719Z,68.15
2019-03-21T00:14:48.832Z,68.31
2019-03-21T00:17:40.489Z,68.33
2019-03-21T00:20:16.396Z,68.31
2019-03-21T00:22:45.905Z,69.01
2019-03-21T00:25:25.141Z,69.62
2019-03-21T00:27:54.582Z,69.59
2019-03-21T00:30:26.330Z,69.57
2019-03-21T00:32:57.056Z,69.59
2019-03-21T00:35:26.487Z,69.36
2019-03-21T00:37:55.914Z,69.60
2019-03-21T00:40:38.731Z,69.80
2019-03-21T00:43:11.375Z,69.91
2019-03-21T00:45:40.818Z,69.95
2019-03-21T00:48:14.996Z,69.77
2019-03-21T00:50:44.434Z,69.85
2019-03-21T00:53:13.865Z,69.90
2019-03-21T00:55:50.592Z,69.93
2019-03-21T00:58:20.027Z,69.85
2019-03-21T01:00:56.907Z,70.07
2019-03-21T01:03:26.601Z,69.93
2019-03-21T01:05:56.050Z,70.57
2019-03-21T01:08:25.478Z,70.43
2019-03-21T01:10:54.918Z,70.05
2019-03-21T01:13:28.417Z,69.97
2019-03-21T01:15:57.864Z,70.13
2019-03-21T01:18:27.367Z,70.15
2019-03-21T01:20:56.810Z,70.41
2019-03-21T01:23:26.233Z,70.30
2019-03-21T01:26:05.829Z,70.27
2019-03-21T01:28:35.260Z,70.13
2019-03-21T01:31:04.786Z,70.16
2019-03-21T01:33:34.204Z,70.61
2019-03-21T01:36:05.854Z,70.35
2019-03-21T01:38:35.283Z,70.78
2019-03-21T01:41:17.878Z,71.09
2019-03-21T01:43:47.304Z,71.25
2019-03-21T01:46:22.885Z,71.22
2019-03-21T01:48:52.323Z,71.37
2019-03-21T01:51:21.752Z,71.86
2019-03-21T01:53:51.700Z,72.08
2019-03-21T01:56:21.133Z,71.60
2019-03-21T01:58:51.084Z,71.98
2019-03-21T02:01:20.519Z,71.01
2019-03-21T02:03:49.947Z,70.71
2019-03-21T02:06:19.641Z,70.64
2019-03-21T02:08:49.070Z,70.75
2019-03-21T02:11:18.506Z,71.20
2019-03-21T02:13:47.931Z,70.92
2019-03-21T02:16:17.373Z,71.47
2019-03-21T02:18:46.801Z,71.73
2019-03-21T02:21:16.249Z,72.33
2019-03-21T02:23:45.681Z,71.56
2019-03-21T02:26:15.125Z,71.63
2019-03-21T02:28:44.559Z,71.90
2019-03-21T02:31:13.982Z,71.47
2019-03-21T02:33:45.678Z,71.81
2019-03-21T02:36:15.371Z,72.00
2019-03-21T02:38:44.806Z,72.35
2019-03-21T02:41:16.651Z,72.47
2019-03-21T02:43:46.098Z,72.62
2019-03-21T02:46:15.649Z,72.55
2019-03-21T02:48:45.044Z,72.56
2019-03-21T02:51:14.477Z,72.48
2019-03-21T02:53:43.930Z,72.49
2019-03-21T02:56:18.638Z,72.30
2019-03-21T02:58:48.087Z,72.43
2019-03-21T03:01:17.525Z,72.14
2019-03-21T03:03:46.960Z,72.41
2019-03-21T03:06:16.399Z,72.87
2019-03-21T03:08:45.836Z,72.90
2019-03-21T03:11:21.213Z,72.89
2019-03-21T03:13:51.974Z,72.57
2019-03-21T03:16:23.607Z,72.94
2019-03-21T03:18:53.058Z,72.52
2019-03-21T03:21:22.560Z,72.03
2019-03-21T03:23:52.002Z,72.13
2019-03-21T03:26:21.445Z,72.21
2019-03-21T03:28:50.870Z,72.58
2019-03-21T03:31:20.319Z,72.27
2019-03-21T03:33:49.841Z,72.11
2019-03-21T03:36:19.263Z,72.34
2019-03-21T03:38:48.713Z,72.68
2019-03-21T03:41:21.234Z,73.05
2019-03-21T03:43:50.683Z,73.55
2019-03-21T03:46:20.097Z,73.17
2019-03-21T03:48:49.546Z,73.33
2019-03-21T03:51:18.966Z,73.18
2019-03-21T03:53:48.400Z,73.46
2019-03-21T03:56:17.836Z,73.20
2019-03-21T03:59:03.528Z,73.35
2019-03-21T04:01:32.954Z,73.35
2019-03-21T04:04:02.710Z,73.70
2019-03-21T04:06:32.139Z,73.51
2019-03-21T04:09:01.577Z,74.08
2019-03-21T04:11:33.284Z,73.98
2019-03-21T04:14:02.746Z,74.00
2019-03-21T04:16:32.177Z,73.44
2019-03-21T04:19:01.900Z,73.34
2019-03-21T04:21:31.343Z,73.27
2019-03-21T04:24:00.774Z,73.19
2019-03-21T04:26:34.814Z,73.19
2019-03-21T04:29:04.271Z,72.49
2019-03-21T04:31:33.695Z,73.02
2019-03-21T04:34:08.083Z,73.05
2019-03-21T04:36:37.513Z,73.92
2019-03-21T04:39:09.890Z,74.13
2019-03-21T04:41:42.002Z,74.31
2019-03-21T04:44:11.439Z,74.14
2019-03-21T04:46:40.871Z,74.33
2019-03-21T04:49:10.316Z,73.83
2019-03-21T04:51:39.753Z,73.68
2019-03-21T04:54:09.196Z,73.64
2019-03-21T04:56:38.630Z,73.87
2019-03-21T04:59:08.070Z,73.82
2019-03-21T05:01:37.507Z,74.21
2019-03-21T05:04:06.947Z,74.52
2019-03-21T05:06:36.373Z,74.28
2019-03-21T05:09:09.221Z,74.36
2019-03-21T05:11:38.645Z,74.76
2019-03-21T05:14:08.079Z,74.58
2019-03-21T05:16:37.758Z,74.64
2019-03-21T05:19:07.200Z,74.86
2019-03-21T05:21:36.629Z,74.78
2019-03-21T05:24:06.077Z,74.48
2019-03-21T05:26:35.504Z,73.71
2019-03-21T05:29:04.942Z,74.20
2019-03-21T05:31:37.920Z,73.75
2019-03-21T05:34:07.342Z,73.26
2019-03-21T05:36:36.791Z,74.18
2019-03-21T05:39:10.019Z,74.14
2019-03-21T05:41:39.443Z,73.96
2019-03-21T05:44:22.545Z,73.74
2019-03-21T05:46:52.321Z,74.30
2019-03-21T05:49:21.756Z,74.59
2019-03-21T05:51:51.237Z,74.72
2019-03-21T05:54:20.674Z,74.63
2019-03-21T05:56:50.105Z,74.64
2019-03-21T05:59:19.547Z,74.57
2019-03-21T06:01:48.982Z,74.42
2019-03-21T06:04:18.429Z,74.43
2019-03-21T06:07:18.789Z,74.69
2019-03-21T06:09:48.232Z,74.67
2019-03-21T06:12:17.667Z,74.88
2019-03-21T06:14:54.504Z,75.10
2019-03-21T06:17:24.012Z,74.88
2019-03-21T06:20:26.814Z,74.47
2019-03-21T06:23:03.889Z,74.48
2019-03-21T06:25:47.124Z,74.12
2019-03-21T06:28:16.549Z,73.87
2019-03-21T06:30:45.984Z,73.74
2019-03-21T06:33:15.414Z,73.31
2019-03-21T06:35:44.862Z,73.15
2019-03-21T06:38:14.293Z,72.71
2019-03-21T06:40:44.026Z,73.15
2019-03-21T06:43:13.460Z,72.92
2019-03-21T06:45:48.018Z,72.47
2019-03-21T06:48:14.394Z,72.27
2019-03-21T06:50:43.832Z,71.91
2019-03-21T06:53:13.267Z,72.09
2019-03-21T06:55:42.719Z,72.00
2019-03-21T06:58:12.146Z,71.61
2019-03-21T07:00:42.022Z,71.71
2019-03-21T07:03:11.736Z,71.69
2019-03-21T07:05:41.237Z,71.94
2019-03-21T07:08:10.690Z,71.90
2019-03-21T07:10:40.132Z,71.63
2019-03-21T07:13:09.561Z,71.30
2019-03-21T07:15:39.018Z,71.45
2019-03-21T07:18:08.446Z,71.16
2019-03-21T07:20:38.189Z,70.65
2019-03-21T07:23:08.000Z,70.61
2019-03-21T07:25:37.439Z,70.14
2019-03-21T07:28:06.951Z,70.26
2019-03-21T07:30:36.399Z,69.96
2019-03-21T07:33:06.100Z,69.35
2019-03-21T07:35:35.549Z,68.62
2019-03-21T07:38:05.051Z,69.07
2019-03-21T07:40:34.604Z,68.40
2019-03-21T07:43:04.048Z,67.80
2019-03-21T07:45:33.477Z,67.45
2019-03-21T07:48:05.101Z,67.37
2019-03-21T07:50:34.078Z,67.14
2019-03-21T07:53:03.518Z,67.34
2019-03-21T07:55:32.953Z,67.62
2019-03-21T07:58:02.666Z,66.48
2019-03-21T08:00:32.119Z,66.62
2019-03-21T08:03:01.556Z,66.61
2019-03-21T08:05:39.877Z,66.06
2019-03-21T08:08:02.234Z,65.01
2019-03-21T08:10:31.667Z,65.05
2019-03-21T08:13:01.339Z,64.72
2019-03-21T08:15:30.775Z,64.48
2019-03-21T08:18:00.217Z,63.80
2019-03-21T08:20:29.661Z,63.47
2019-03-21T08:22:59.105Z,63.70
2019-03-21T08:25:28.533Z,63.46
2019-03-21T08:27:57.984Z,63.34
2019-03-21T08:30:35.519Z,63.18
2019-03-21T08:33:05.715Z,62.00
2019-03-21T08:35:35.170Z,61.33
2019-03-21T08:38:04.880Z,61.58
2019-03-21T08:40:34.328Z,61.08
2019-03-21T08:43:03.781Z,61.02
2019-03-21T08:45:33.211Z,59.89
2019-03-21T08:48:02.654Z,59.90
2019-03-21T08:50:32.105Z,59.59
2019-03-21T08:53:01.538Z,59.54
2019-03-21T08:55:30.972Z,58.94
2019-03-21T08:58:00.721Z,58.69
2019-03-21T09:00:34.399Z,58.44
2019-03-21T09:03:01.578Z,58.13
2019-03-21T09:05:31.007Z,57.41
2019-03-21T09:08:00.447Z,55.69
2019-03-21T09:10:29.877Z,55.78
2019-03-21T09:12:59.322Z,55.57
2019-03-21T09:15:28.753Z,55.14
2019-03-21T09:17:58.199Z,53.83
2019-03-21T09:20:27.630Z,53.84
2019-03-21T09:22:57.080Z,52.29
2019-03-21T09:25:26.509Z,52.43
2019-03-21T09:28:02.514Z,52.04
2019-03-21T09:30:27.099Z,51.95
2019-03-21T09:32:56.792Z,51.50
2019-03-21T09:35:26.221Z,50.88
2019-03-21T09:37:55.648Z,50.41
2019-03-21T09:40:25.086Z,49.80
2019-03-21T09:42:54.524Z,49.44
2019-03-21T09:45:23.971Z,49.15
2019-03-21T09:47:53.418Z,48.32
2019-03-21T09:50:30.678Z,48.10
2019-03-21T09:53:00.091Z,48.14
2019-03-21T09:55:29.529Z,47.73
2019-03-21T09:57:59.006Z,47.52
2019-03-21T10:00:38.153Z,47.65
2019-03-21T10:03:07.664Z,45.88
2019-03-21T10:05:37.095Z,45.94
2019-03-21T10:08:06.677Z,45.88
2019-03-21T10:10:36.116Z,44.35
2019-03-21T10:13:06.299Z,45.03
2019-03-21T10:15:35.724Z,44.71
2019-03-21T10:18:05.709Z,44.90
2019-03-21T10:20:35.213Z,41.71
2019-03-21T10:23:04.660Z,43.21
2019-03-21T10:25:34.451Z,42.34
2019-03-21T10:28:04.194Z,42.17
2019-03-21T10:30:39.932Z,42.40
2019-03-21T10:33:12.925Z,41.28
2019-03-21T10:35:42.439Z,41.70
2019-03-21T10:38:11.949Z,40.71
2019-03-21T10:40:41.941Z,41.17
2019-03-21T10:43:11.395Z,40.19
2019-03-21T10:45:40.825Z,40.34
2019-03-21T10:48:10.267Z,39.17
2019-03-21T10:50:41.949Z,38.33
2019-03-21T10:53:11.479Z,38.59
2019-03-21T10:55:40.912Z,37.15
2019-03-21T10:58:10.411Z,37.58
2019-03-21T11:00:39.931Z,34.96
2019-03-21T11:03:09.376Z,35.05
2019-03-21T11:05:38.896Z,36.07
2019-03-21T11:08:08.767Z,35.48
2019-03-21T11:10:38.217Z,35.67
2019-03-21T11:13:07.823Z,36.00
2019-03-21T11:15:37.270Z,34.72
2019-03-21T11:18:06.780Z,34.17
2019-03-21T11:20:40.383Z,34.65
2019-03-21T11:23:10.233Z,34.18
2019-03-21T11:25:39.699Z,34.01
2019-03-21T11:28:09.307Z,34.25
2019-03-21T11:30:43.652Z,34.33
2019-03-21T11:33:13.244Z,34.43
2019-03-21T11:35:42.754Z,34.43
2019-03-21T11:38:12.308Z,35.11
2019-03-21T11:40:41.842Z,35.08
2019-03-21T11:43:11.808Z,34.38
2019-03-21T11:45:41.501Z,34.25
2019-03-21T11:48:10.930Z,34.65
2019-03-21T11:50:40.408Z,32.12
2019-03-21T11:53:09.849Z,33.56
2019-03-21T11:55:39.316Z,33.47
2019-03-21T11:58:08.742Z,34.23
2019-03-21T12:00:44.436Z,32.45
2019-03-21T12:03:09.435Z,33.06
2019-03-21T12:05:38.888Z,33.64
2019-03-21T12:08:08.602Z,33.58
2019-03-21T12:10:38.056Z,33.68
2019-03-21T12:13:07.500Z,32.02
2019-03-21T12:15:36.956Z,30.63
2019-03-21T12:18:06.405Z,31.84
2019-03-21T12:20:35.933Z,30.79
2019-03-21T12:23:06.267Z,31.90
2019-03-21T12:25:35.734Z,33.01
2019-03-21T12:28:05.178Z,30.80
2019-03-21T12:30:37.826Z,31.37
2019-03-21T12:33:07.882Z,30.30
2019-03-21T12:35:37.326Z,31.74
2019-03-21T12:38:07.476Z,31.52
2019-03-21T12:40:37.031Z,30.34
2019-03-21T12:43:06.912Z,31.05
2019-03-21T12:45:36.372Z,31.28
2019-03-21T12:48:06.369Z,29.73
2019-03-21T12:50:35.886Z,31.45
2019-03-21T12:53:05.402Z,31.27
2019-03-21T12:55:35.259Z,31.18
2019-03-21T12:58:05.852Z,31.59
2019-03-21T13:00:39.969Z,31.65
2019-03-21T13:03:09.500Z,31.44
2019-03-21T13:05:39.036Z,29.17
2019-03-21T13:08:08.553Z,29.06
2019-03-21T13:10:38.005Z,29.36
2019-03-21T13:13:08.409Z,30.50
2019-03-21T13:15:38.012Z,30.42
2019-03-21T13:18:07.975Z,29.90
2019-03-21T13:20:37.492Z,29.90
2019-03-21T13:23:07.489Z,30.59
2019-03-21T13:25:37.235Z,30.50
2019-03-21T13:28:06.952Z,30.51
2019-03-21T13:30:36.846Z,30.07
2019-03-21T13:33:06.365Z,30.91
2019-03-21T13:35:35.965Z,30.08
2019-03-21T13:38:05.734Z,30.71
2019-03-21T13:40:35.208Z,30.96
2019-03-21T13:43:04.927Z,31.72
2019-03-21T13:45:34.382Z,32.24
2019-03-21T13:48:03.897Z,32.46
2019-03-21T13:50:33.354Z,32.45
2019-03-21T13:53:05.104Z,31.95
2019-03-21T13:55:34.124Z,31.62
2019-03-21T13:58:03.639Z,31.91
2019-03-21T14:00:33.084Z,32.28
2019-03-21T14:03:02.615Z,29.99
2019-03-21T14:05:32.063Z,31.24
2019-03-21T14:08:01.522Z,31.89
2019-03-21T14:10:32.312Z,31.82
2019-03-21T14:13:01.919Z,30.91
2019-03-21T14:15:31.357Z,30.82
2019-03-21T14:18:01.095Z,30.76
2019-03-21T14:20:30.544Z,29.94
2019-03-21T14:22:59.994Z,30.63
2019-03-21T14:25:29.534Z,30.88
2019-03-21T14:27:59.409Z,30.79
2019-03-21T14:30:28.962Z,30.81
2019-03-21T14:32:58.733Z,30.45
2019-03-21T14:35:28.220Z,29.96
2019-03-21T14:37:57.673Z,29.24
2019-03-21T14:40:27.136Z,29.38
2019-03-21T14:42:56.590Z,29.57
2019-03-21T14:45:26.048Z,29.74
2019-03-21T14:47:55.503Z,29.90
2019-03-21T14:50:24.956Z,29.97
2019-03-21T14:52:54.408Z,30.56
2019-03-21T14:55:23.870Z,30.44
2019-03-21T14:57:53.306Z,30.14
2019-03-21T15:00:22.743Z,28.24
2019-03-21T15:02:52.243Z,28.38
2019-03-21T15:05:21.697Z,29.38
2019-03-21T15:07:51.139Z,28.50
2019-03-21T15:10:20.653Z,27.82
2019-03-21T15:12:50.146Z,28.64
2019-03-21T15:15:19.625Z,27.80
2019-03-21T15:17:49.075Z,27.20
2019-03-21T15:20:18.796Z,27.04
2019-03-21T15:22:48.251Z,27.01
2019-03-21T15:25:19.165Z,27.55
2019-03-21T15:27:49.659Z,27.72
2019-03-21T15:30:22.194Z,27.83
2019-03-21T15:32:51.830Z,27.46
2019-03-21T15:35:21.745Z,27.73
2019-03-21T15:37:51.186Z,28.23
2019-03-21T15:40:20.636Z,28.07
2019-03-21T15:42:50.081Z,28.08
2019-03-21T15:45:23.910Z,26.66
2019-03-21T15:47:50.890Z,25.67
2019-03-21T15:50:38.791Z,22.09
2019-03-21T15:53:09.118Z,21.21
2019-03-21T15:55:38.563Z,19.96
2019-03-21T15:58:08.023Z,19.31
2019-03-21T16:00:43.226Z,18.86
2019-03-21T16:03:13.790Z,18.15
2019-03-21T16:05:43.316Z,16.30
2019-03-21T16:08:12.771Z,15.82
2019-03-21T16:10:42.222Z,15.37
2019-03-21T16:13:11.678Z,15.23
2019-03-21T16:15:41.124Z,14.63
2019-03-21T16:18:10.569Z,14.38
2019-03-21T16:20:40.098Z,14.35
2019-03-21T16:23:09.535Z,15.09
2019-03-21T16:25:39.008Z,15.29
2019-03-21T16:28:08.452Z,15.98
2019-03-21T16:30:37.920Z,16.07
2019-03-21T16:33:07.374Z,16.16
2019-03-21T16:35:36.819Z,16.05
2019-03-21T16:38:06.325Z,15.46
2019-03-21T16:40:35.789Z,15.93
2019-03-21T16:43:05.935Z,17.69
2019-03-21T16:45:35.697Z,18.65
2019-03-21T16:48:05.624Z,20.12
2019-03-21T16:50:35.258Z,21.00
2019-03-21T16:53:04.709Z,22.12
2019-03-21T16:55:34.160Z,23.87
2019-03-21T16:58:03.611Z,25.12
2019-03-21T17:00:33.892Z,25.90
2019-03-21T17:03:03.323Z,25.57
2019-03-21T17:05:32.790Z,26.66
2019-03-21T17:08:11.209Z,27.58
2019-03-21T17:10:33.400Z,28.85
2019-03-21T17:13:04.744Z,28.99
2019-03-21T17:15:34.016Z,29.75
2019-03-21T17:18:03.482Z,29.61
2019-03-21T17:20:33.271Z,29.93
2019-03-21T17:23:02.709Z,30.93
2019-03-21T17:25:32.159Z,31.16
2019-03-21T17:28:01.590Z,31.55
2019-03-21T17:30:31.045Z,31.60
2019-03-21T17:33:02.117Z,32.02
2019-03-21T17:35:31.539Z,31.99
2019-03-21T17:38:00.971Z,32.43
2019-03-21T17:40:30.423Z,32.55
2019-03-21T17:42:59.865Z,33.36
2019-03-21T17:45:29.309Z,34.29
2019-03-21T17:47:58.750Z,34.05
2019-03-21T17:50:28.213Z,34.35
2019-03-21T17:52:57.634Z,34.56
2019-03-21T17:55:27.087Z,34.75
2019-03-21T17:57:56.527Z,35.66
2019-03-21T18:00:31.781Z,35.49
2019-03-21T18:03:01.367Z,35.65
2019-03-21T18:05:30.814Z,36.03
2019-03-21T18:08:00.254Z,36.73
2019-03-21T18:10:36.064Z,36.70
2019-03-21T18:13:06.033Z,37.15
2019-03-21T18:15:35.486Z,37.35
2019-03-21T18:18:05.190Z,37.80
2019-03-21T18:20:34.631Z,38.58
2019-03-21T18:23:04.070Z,38.52
2019-03-21T18:25:33.520Z,38.42
2019-03-21T18:28:02.973Z,39.12
2019-03-21T18:30:32.858Z,39.82
2019-03-21T18:33:02.671Z,39.93
2019-03-21T18:35:32.130Z,40.33
2019-03-21T18:38:01.637Z,40.52
2019-03-21T18:40:31.087Z,41.40
2019-03-21T18:43:00.528Z,41.08
2019-03-21T18:45:29.981Z,41.35
2019-03-21T18:47:59.421Z,41.32
2019-03-21T18:50:28.875Z,41.51
2019-03-21T18:52:58.306Z,41.96
2019-03-21T18:55:27.750Z,42.72
2019-03-21T18:57:57.194Z,42.67
2019-03-21T19:00:26.636Z,43.13
2019-03-21T19:02:56.077Z,42.96
2019-03-21T19:05:25.535Z,44.44
2019-03-21T19:07:54.976Z,44.25
2019-03-21T19:10:24.430Z,44.76
2019-03-21T19:12:53.871Z,45.22
2019-03-21T19:15:23.311Z,45.94
2019-03-21T19:17:53.071Z,46.64
2019-03-21T19:20:22.531Z,47.08
2019-03-21T19:22:51.991Z,47.26
2019-03-21T19:25:21.696Z,47.62
2019-03-21T19:27:51.141Z,48.23
2019-03-21T19:30:21.713Z,48.77
2019-03-21T19:32:51.157Z,48.97
2019-03-21T19:35:20.666Z,49.01
2019-03-21T19:37:50.099Z,49.42
2019-03-21T19:40:22.266Z,49.22
2019-03-21T19:42:52.025Z,49.26
2019-03-21T19:45:21.546Z,49.99
2019-03-21T19:47:50.994Z,50.30
2019-03-21T19:50:21.923Z,50.59
2019-03-21T19:52:51.356Z,50.85
2019-03-21T19:55:30.162Z,50.64
2019-03-21T19:57:51.969Z,50.94
2019-03-21T20:00:23.142Z,51.24
2019-03-21T20:02:52.584Z,51.57
2019-03-21T20:05:22.099Z,51.77
2019-03-21T20:07:51.548Z,52.39
2019-03-21T20:10:22.335Z,52.87
2019-03-21T20:12:51.777Z,53.10
2019-03-21T20:15:21.393Z,53.11
2019-03-21T20:17:50.836Z,53.38
2019-03-21T20:20:20.343Z,53.32
2019-03-21T20:22:49.801Z,53.16
2019-03-21T20:25:19.232Z,54.25
2019-03-21T20:27:48.679Z,53.97
2019-03-21T20:30:21.200Z,54.06
2019-03-21T20:32:50.713Z,54.14
2019-03-21T20:35:20.144Z,54.11
2019-03-21T20:37:49.605Z,54.00
2019-03-21T20:40:20.783Z,54.30
2019-03-21T20:42:50.295Z,55.01
2019-03-21T20:45:20.984Z,56.06
2019-03-21T20:47:50.422Z,56.20
2019-03-21T20:50:20.031Z,56.42
2019-03-21T20:52:49.487Z,56.57
2019-03-21T20:55:18.930Z,56.42
2019-03-21T20:57:48.608Z,56.57
2019-03-21T21:00:22.805Z,56.90
2019-03-21T21:02:53.587Z,56.56
2019-03-21T21:05:23.469Z,56.77
2019-03-21T21:07:53.090Z,56.59
2019-03-21T21:10:22.528Z,56.79
2019-03-21T21:12:51.974Z,57.79
2019-03-21T21:15:21.408Z,58.17
2019-03-21T21:17:50.850Z,58.74
2019-03-21T21:20:20.361Z,58.87
2019-03-21T21:22:49.801Z,58.58
2019-03-21T21:25:19.233Z,58.30
2019-03-21T21:27:50.242Z,58.48
2019-03-21T21:30:21.919Z,58.63
2019-03-21T21:32:51.425Z,58.56
2019-03-21T21:35:20.851Z,58.77
2019-03-21T21:37:50.286Z,59.87
2019-03-21T21:40:19.782Z,59.97
2019-03-21T21:42:49.216Z,60.53
2019-03-21T21:45:19.427Z,60.70
2019-03-21T21:47:48.942Z,60.77
2019-03-21T21:50:19.305Z,60.54
2019-03-21T21:52:48.827Z,60.24
2019-03-21T21:55:18.259Z,60.17
2019-03-21T21:57:47.704Z,60.55
2019-03-21T22:00:22.037Z,61.26
2019-03-21T22:02:51.748Z,61.41
2019-03-21T22:05:21.252Z,61.84
2019-03-21T22:07:50.695Z,62.51
2019-03-21T22:10:20.426Z,62.83
2019-03-21T22:12:49.865Z,63.04
2019-03-21T22:15:19.464Z,63.17
2019-03-21T22:17:49.185Z,63.00
2019-03-21T22:20:18.683Z,62.95
2019-03-21T22:22:48.189Z,62.37
2019-03-21T22:25:17.622Z,62.90
2019-03-21T22:27:47.062Z,63.25
2019-03-21T22:30:19.575Z,63.41
2019-03-21T22:32:49.085Z,63.87
2019-03-21T22:35:18.520Z,63.93
2019-03-21T22:37:47.953Z,63.85
2019-03-21T22:40:19.298Z,63.62
2019-03-21T22:42:48.743Z,63.56
2019-03-21T22:45:18.690Z,63.60
2019-03-21T22:47:50.475Z,63.95
2019-03-21T22:50:19.442Z,64.22
2019-03-21T22:52:48.965Z,64.25
2019-03-21T22:55:18.419Z,64.73
2019-03-21T22:57:47.871Z,64.78
2019-03-21T23:00:29.823Z,64.58
2019-03-21T23:02:59.278Z,64.79
2019-03-21T23:05:28.704Z,64.89
2019-03-21T23:07:58.184Z,65.01
2019-03-21T23:10:27.605Z,65.02
2019-03-21T23:12:57.055Z,65.24
2019-03-21T23:15:26.487Z,65.33
2019-03-21T23:17:55.929Z,65.51
2019-03-21T23:20:25.385Z,65.68
2019-03-21T23:22:54.812Z,65.74
2019-03-21T23:25:24.251Z,66.00
2019-03-21T23:27:53.685Z,66.04
2019-03-21T23:30:23.130Z,66.28
2019-03-21T23:32:52.574Z,66.83
2019-03-21T23:35:22.016Z,67.17
2019-03-21T23:37:51.539Z,66.75
2019-03-21T23:40:20.971Z,66.64
2019-03-21T23:42:50.416Z,66.49
2019-03-21T23:45:20.246Z,66.49
2019-03-21T23:47:49.958Z,66.57
2019-03-21T23:50:19.393Z,66.88
2019-03-21T23:52:48.840Z,67.05
2019-03-21T23:55:18.280Z,67.26
2019-03-21T23:57:47.728Z,67.13
